sensor_id;sensor_type;location;lat;lon;timestamp;P1;durP1;ratioP1;P2;durP2;ratioP2
36441;SDS011;64346;50.820;16.274;2023-07-20T00:02:25;4.95;;;2.35;;
36441;SDS011;64346;50.820;16.274;2023-07-20T00:04:53;6.00;;;2.60;;
36441;SDS011;64346;50.820;16.274;2023-07-20T00:07:20;6.47;;;2.72;;
36441;SDS011;64346;50.820;16.274;2023-07-20T00:09:50;3.22;;;1.88;;
36441;SDS011;64346;50.820;16.274;2023-07-20T00:12:20;5.45;;;2.50;;
36441;SDS011;64346;50.820;16.274;2023-07-20T00:14:47;4.60;;;2.13;;
36441;SDS011;64346;50.820;16.274;2023-07-20T00:17:14;5.30;;;2.20;;
36441;SDS011;64346;50.820;16.274;2023-07-20T00:19:44;3.67;;;2.10;;
36441;SDS011;64346;50.820;16.274;2023-07-20T00:22:11;4.55;;;2.38;;
36441;SDS011;64346;50.820;16.274;2023-07-20T00:24:41;4.75;;;2.28;;
36441;SDS011;64346;50.820;16.274;2023-07-20T00:27:09;7.40;;;2.10;;
36441;SDS011;64346;50.820;16.274;2023-07-20T00:29:36;5.50;;;2.30;;
36441;SDS011;64346;50.820;16.274;2023-07-20T00:32:03;2.90;;;1.80;;
36441;SDS011;64346;50.820;16.274;2023-07-20T00:34:31;5.45;;;2.28;;
36441;SDS011;64346;50.820;16.274;2023-07-20T00:36:59;4.57;;;2.05;;
36441;SDS011;64346;50.820;16.274;2023-07-20T00:39:26;5.03;;;2.05;;
36441;SDS011;64346;50.820;16.274;2023-07-20T00:41:53;2.85;;;1.85;;
36441;SDS011;64346;50.820;16.274;2023-07-20T00:44:21;3.10;;;1.70;;
36441;SDS011;64346;50.820;16.274;2023-07-20T00:46:48;3.63;;;1.98;;
36441;SDS011;64346;50.820;16.274;2023-07-20T00:49:16;4.55;;;2.05;;
36441;SDS011;64346;50.820;16.274;2023-07-20T00:51:43;5.28;;;2.40;;
36441;SDS011;64346;50.820;16.274;2023-07-20T00:54:11;3.95;;;1.92;;
36441;SDS011;64346;50.820;16.274;2023-07-20T00:56:40;5.03;;;2.05;;
36441;SDS011;64346;50.820;16.274;2023-07-20T00:59:08;4.20;;;2.08;;
36441;SDS011;64346;50.820;16.274;2023-07-20T01:01:36;4.78;;;2.13;;
36441;SDS011;64346;50.820;16.274;2023-07-20T01:04:06;5.03;;;2.47;;
36441;SDS011;64346;50.820;16.274;2023-07-20T01:09:08;5.53;;;2.40;;
36441;SDS011;64346;50.820;16.274;2023-07-20T01:14:28;7.07;;;3.53;;
36441;SDS011;64346;50.820;16.274;2023-07-20T01:16:57;6.57;;;3.10;;
36441;SDS011;64346;50.820;16.274;2023-07-20T01:19:27;4.68;;;2.53;;
36441;SDS011;64346;50.820;16.274;2023-07-20T01:27:51;4.45;;;2.40;;
36441;SDS011;64346;50.820;16.274;2023-07-20T01:33:20;3.92;;;1.90;;
36441;SDS011;64346;50.820;16.274;2023-07-20T01:35:53;6.72;;;2.13;;
36441;SDS011;64346;50.820;16.274;2023-07-20T01:38:23;3.42;;;1.83;;
36441;SDS011;64346;50.820;16.274;2023-07-20T01:40:51;4.35;;;2.17;;
36441;SDS011;64346;50.820;16.274;2023-07-20T01:43:21;3.97;;;1.75;;
36441;SDS011;64346;50.820;16.274;2023-07-20T01:45:49;3.50;;;1.60;;
36441;SDS011;64346;50.820;16.274;2023-07-20T01:48:16;4.05;;;1.58;;
36441;SDS011;64346;50.820;16.274;2023-07-20T01:50:44;3.78;;;2.05;;
36441;SDS011;64346;50.820;16.274;2023-07-20T01:53:11;2.80;;;1.63;;
36441;SDS011;64346;50.820;16.274;2023-07-20T01:55:39;4.85;;;1.88;;
36441;SDS011;64346;50.820;16.274;2023-07-20T01:58:06;2.88;;;1.50;;
36441;SDS011;64346;50.820;16.274;2023-07-20T02:00:33;2.72;;;1.70;;
36441;SDS011;64346;50.820;16.274;2023-07-20T02:03:03;2.70;;;1.65;;
36441;SDS011;64346;50.820;16.274;2023-07-20T02:05:33;2.90;;;1.77;;
36441;SDS011;64346;50.820;16.274;2023-07-20T02:08:00;1.90;;;1.48;;
36441;SDS011;64346;50.820;16.274;2023-07-20T02:10:28;2.25;;;1.60;;
36441;SDS011;64346;50.820;16.274;2023-07-20T02:12:55;2.65;;;1.70;;
36441;SDS011;64346;50.820;16.274;2023-07-20T02:15:22;3.70;;;1.90;;
36441;SDS011;64346;50.820;16.274;2023-07-20T02:17:49;2.53;;;1.80;;
36441;SDS011;64346;50.820;16.274;2023-07-20T02:20:17;4.82;;;2.50;;
36441;SDS011;64346;50.820;16.274;2023-07-20T02:22:44;4.55;;;2.13;;
36441;SDS011;64346;50.820;16.274;2023-07-20T02:25:14;3.58;;;1.90;;
36441;SDS011;64346;50.820;16.274;2023-07-20T02:27:41;3.28;;;1.90;;
36441;SDS011;64346;50.820;16.274;2023-07-20T02:30:09;5.15;;;1.98;;
36441;SDS011;64346;50.820;16.274;2023-07-20T02:32:36;5.03;;;2.20;;
36441;SDS011;64346;50.820;16.274;2023-07-20T02:35:04;2.90;;;2.00;;
36441;SDS011;64346;50.820;16.274;2023-07-20T02:37:32;4.93;;;2.10;;
36441;SDS011;64346;50.820;16.274;2023-07-20T02:39:59;4.18;;;2.20;;
36441;SDS011;64346;50.820;16.274;2023-07-20T02:42:29;4.55;;;2.60;;
36441;SDS011;64346;50.820;16.274;2023-07-20T02:44:56;3.88;;;2.50;;
36441;SDS011;64346;50.820;16.274;2023-07-20T02:47:24;5.07;;;2.90;;
36441;SDS011;64346;50.820;16.274;2023-07-20T02:49:51;4.90;;;2.70;;
36441;SDS011;64346;50.820;16.274;2023-07-20T02:52:18;6.88;;;3.05;;
36441;SDS011;64346;50.820;16.274;2023-07-20T02:54:48;5.47;;;2.75;;
36441;SDS011;64346;50.820;16.274;2023-07-20T02:57:15;7.03;;;3.80;;
36441;SDS011;64346;50.820;16.274;2023-07-20T02:59:43;8.15;;;4.00;;
36441;SDS011;64346;50.820;16.274;2023-07-20T03:02:12;7.35;;;3.85;;
36441;SDS011;64346;50.820;16.274;2023-07-20T03:04:39;6.95;;;3.40;;
36441;SDS011;64346;50.820;16.274;2023-07-20T03:07:07;5.75;;;3.35;;
36441;SDS011;64346;50.820;16.274;2023-07-20T03:09:34;8.70;;;4.00;;
36441;SDS011;64346;50.820;16.274;2023-07-20T03:12:01;9.45;;;3.78;;
36441;SDS011;64346;50.820;16.274;2023-07-20T03:14:31;9.35;;;4.40;;
36441;SDS011;64346;50.820;16.274;2023-07-20T03:16:58;8.23;;;3.47;;
36441;SDS011;64346;50.820;16.274;2023-07-20T03:19:26;8.43;;;4.07;;
36441;SDS011;64346;50.820;16.274;2023-07-20T03:21:55;6.03;;;3.75;;
36441;SDS011;64346;50.820;16.274;2023-07-20T03:24:25;6.15;;;3.45;;
36441;SDS011;64346;50.820;16.274;2023-07-20T03:26:54;6.90;;;4.00;;
36441;SDS011;64346;50.820;16.274;2023-07-20T03:29:24;6.57;;;3.53;;
36441;SDS011;64346;50.820;16.274;2023-07-20T03:31:53;7.47;;;3.97;;
36441;SDS011;64346;50.820;16.274;2023-07-20T03:34:21;8.10;;;4.18;;
36441;SDS011;64346;50.820;16.274;2023-07-20T03:36:48;7.68;;;3.70;;
36441;SDS011;64346;50.820;16.274;2023-07-20T03:39:15;8.35;;;4.15;;
36441;SDS011;64346;50.820;16.274;2023-07-20T03:41:42;8.15;;;4.38;;
36441;SDS011;64346;50.820;16.274;2023-07-20T03:44:12;8.05;;;4.20;;
36441;SDS011;64346;50.820;16.274;2023-07-20T03:46:40;6.90;;;3.92;;
36441;SDS011;64346;50.820;16.274;2023-07-20T03:49:11;8.88;;;4.60;;
36441;SDS011;64346;50.820;16.274;2023-07-20T03:51:39;9.70;;;5.25;;
36441;SDS011;64346;50.820;16.274;2023-07-20T03:54:06;11.55;;;6.05;;
36441;SDS011;64346;50.820;16.274;2023-07-20T03:56:36;10.52;;;5.60;;
36441;SDS011;64346;50.820;16.274;2023-07-20T03:59:03;8.82;;;5.50;;
36441;SDS011;64346;50.820;16.274;2023-07-20T04:01:33;8.55;;;5.07;;
36441;SDS011;64346;50.820;16.274;2023-07-20T04:04:06;9.67;;;5.23;;
36441;SDS011;64346;50.820;16.274;2023-07-20T04:06:34;9.77;;;5.35;;
36441;SDS011;64346;50.820;16.274;2023-07-20T04:09:02;11.75;;;5.88;;
36441;SDS011;64346;50.820;16.274;2023-07-20T04:11:30;10.65;;;5.60;;
36441;SDS011;64346;50.820;16.274;2023-07-20T04:14:00;10.05;;;6.50;;
36441;SDS011;64346;50.820;16.274;2023-07-20T04:16:27;10.82;;;7.00;;
36441;SDS011;64346;50.820;16.274;2023-07-20T04:18:55;11.57;;;7.35;;
36441;SDS011;64346;50.820;16.274;2023-07-20T04:21:22;11.25;;;6.93;;
36441;SDS011;64346;50.820;16.274;2023-07-20T04:23:52;12.77;;;7.50;;
36441;SDS011;64346;50.820;16.274;2023-07-20T04:26:22;12.35;;;6.93;;
36441;SDS011;64346;50.820;16.274;2023-07-20T04:28:49;11.25;;;7.30;;
36441;SDS011;64346;50.820;16.274;2023-07-20T04:31:19;11.20;;;7.38;;
36441;SDS011;64346;50.820;16.274;2023-07-20T04:33:46;12.25;;;7.38;;
36441;SDS011;64346;50.820;16.274;2023-07-20T04:36:16;12.82;;;6.70;;
36441;SDS011;64346;50.820;16.274;2023-07-20T04:38:43;10.88;;;6.10;;
36441;SDS011;64346;50.820;16.274;2023-07-20T04:41:14;11.93;;;6.75;;
36441;SDS011;64346;50.820;16.274;2023-07-20T04:43:42;10.95;;;6.75;;
36441;SDS011;64346;50.820;16.274;2023-07-20T04:46:10;9.23;;;6.80;;
36441;SDS011;64346;50.820;16.274;2023-07-20T04:48:38;10.77;;;6.22;;
36441;SDS011;64346;50.820;16.274;2023-07-20T04:51:05;12.25;;;6.50;;
36441;SDS011;64346;50.820;16.274;2023-07-20T04:53:33;10.88;;;7.05;;
36441;SDS011;64346;50.820;16.274;2023-07-20T04:56:00;10.07;;;6.50;;
36441;SDS011;64346;50.820;16.274;2023-07-20T04:58:30;9.10;;;6.05;;
36441;SDS011;64346;50.820;16.274;2023-07-20T05:00:57;11.00;;;6.93;;
36441;SDS011;64346;50.820;16.274;2023-07-20T05:03:24;13.85;;;7.22;;
36441;SDS011;64346;50.820;16.274;2023-07-20T05:05:52;12.95;;;7.32;;
36441;SDS011;64346;50.820;16.274;2023-07-20T05:08:21;12.13;;;7.22;;
36441;SDS011;64346;50.820;16.274;2023-07-20T05:10:49;12.65;;;7.03;;
36441;SDS011;64346;50.820;16.274;2023-07-20T05:13:16;12.27;;;6.53;;
36441;SDS011;64346;50.820;16.274;2023-07-20T05:15:50;14.00;;;7.55;;
36441;SDS011;64346;50.820;16.274;2023-07-20T05:18:19;11.23;;;6.75;;
36441;SDS011;64346;50.820;16.274;2023-07-20T05:20:49;10.48;;;6.30;;
36441;SDS011;64346;50.820;16.274;2023-07-20T05:23:17;10.18;;;6.18;;
36441;SDS011;64346;50.820;16.274;2023-07-20T05:25:47;9.40;;;5.30;;
36441;SDS011;64346;50.820;16.274;2023-07-20T05:28:27;9.23;;;5.00;;
36441;SDS011;64346;50.820;16.274;2023-07-20T05:30:54;8.15;;;4.85;;
36441;SDS011;64346;50.820;16.274;2023-07-20T05:33:22;8.38;;;4.85;;
36441;SDS011;64346;50.820;16.274;2023-07-20T05:35:49;7.53;;;4.38;;
36441;SDS011;64346;50.820;16.274;2023-07-20T05:38:17;8.05;;;4.53;;
36441;SDS011;64346;50.820;16.274;2023-07-20T05:40:46;5.25;;;3.35;;
36441;SDS011;64346;50.820;16.274;2023-07-20T05:43:14;7.20;;;3.58;;
36441;SDS011;64346;50.820;16.274;2023-07-20T05:45:41;6.30;;;3.60;;
36441;SDS011;64346;50.820;16.274;2023-07-20T05:48:09;5.85;;;3.33;;
36441;SDS011;64346;50.820;16.274;2023-07-20T05:50:37;6.40;;;2.85;;
36441;SDS011;64346;50.820;16.274;2023-07-20T05:53:08;5.95;;;3.30;;
36441;SDS011;64346;50.820;16.274;2023-07-20T05:55:36;4.45;;;2.90;;
36441;SDS011;64346;50.820;16.274;2023-07-20T05:58:03;6.90;;;3.30;;
36441;SDS011;64346;50.820;16.274;2023-07-20T06:00:30;5.75;;;3.13;;
36441;SDS011;64346;50.820;16.274;2023-07-20T06:02:58;7.43;;;3.33;;
36441;SDS011;64346;50.820;16.274;2023-07-20T06:05:25;5.55;;;2.80;;
36441;SDS011;64346;50.820;16.274;2023-07-20T06:07:55;4.80;;;2.97;;
36441;SDS011;64346;50.820;16.274;2023-07-20T06:10:25;4.50;;;2.60;;
36441;SDS011;64346;50.820;16.274;2023-07-20T06:12:52;5.50;;;2.20;;
36441;SDS011;64346;50.820;16.274;2023-07-20T06:15:25;4.35;;;2.38;;
36441;SDS011;64346;50.820;16.274;2023-07-20T06:18:00;5.28;;;2.10;;
36441;SDS011;64346;50.820;16.274;2023-07-20T06:20:29;3.90;;;2.28;;
36441;SDS011;64346;50.820;16.274;2023-07-20T06:22:57;7.57;;;2.40;;
36441;SDS011;64346;50.820;16.274;2023-07-20T06:25:26;5.43;;;2.30;;
36441;SDS011;64346;50.820;16.274;2023-07-20T06:27:54;3.80;;;1.98;;
36441;SDS011;64346;50.820;16.274;2023-07-20T06:30:22;3.25;;;2.30;;
36441;SDS011;64346;50.820;16.274;2023-07-20T06:32:51;3.70;;;2.13;;
36441;SDS011;64346;50.820;16.274;2023-07-20T06:35:18;4.22;;;2.25;;
36441;SDS011;64346;50.820;16.274;2023-07-20T06:37:46;4.30;;;2.22;;
36441;SDS011;64346;50.820;16.274;2023-07-20T06:40:13;6.45;;;2.58;;
36441;SDS011;64346;50.820;16.274;2023-07-20T06:45:20;7.25;;;2.70;;
36441;SDS011;64346;50.820;16.274;2023-07-20T06:47:50;4.53;;;2.35;;
36441;SDS011;64346;50.820;16.274;2023-07-20T06:50:20;4.55;;;2.92;;
36441;SDS011;64346;50.820;16.274;2023-07-20T06:52:53;8.07;;;3.00;;
36441;SDS011;64346;50.820;16.274;2023-07-20T06:55:26;5.28;;;2.70;;
36441;SDS011;64346;50.820;16.274;2023-07-20T06:57:58;5.60;;;2.50;;
36441;SDS011;64346;50.820;16.274;2023-07-20T07:00:28;4.05;;;2.72;;
36441;SDS011;64346;50.820;16.274;2023-07-20T07:03:00;6.57;;;2.90;;
36441;SDS011;64346;50.820;16.274;2023-07-20T07:05:27;6.13;;;2.85;;
36441;SDS011;64346;50.820;16.274;2023-07-20T07:08:01;6.45;;;3.10;;
36441;SDS011;64346;50.820;16.274;2023-07-20T07:10:29;4.40;;;2.45;;
36441;SDS011;64346;50.820;16.274;2023-07-20T07:12:56;5.75;;;2.75;;
36441;SDS011;64346;50.820;16.274;2023-07-20T07:15:25;4.97;;;2.40;;
36441;SDS011;64346;50.820;16.274;2023-07-20T07:17:55;3.38;;;2.30;;
36441;SDS011;64346;50.820;16.274;2023-07-20T07:20:23;9.40;;;5.05;;
36441;SDS011;64346;50.820;16.274;2023-07-20T07:22:52;7.45;;;3.50;;
36441;SDS011;64346;50.820;16.274;2023-07-20T07:25:20;8.27;;;3.00;;
36441;SDS011;64346;50.820;16.274;2023-07-20T07:27:52;2.58;;;1.98;;
36441;SDS011;64346;50.820;16.274;2023-07-20T07:30:22;3.53;;;1.80;;
36441;SDS011;64346;50.820;16.274;2023-07-20T07:32:49;4.65;;;2.42;;
36441;SDS011;64346;50.820;16.274;2023-07-20T07:35:16;5.80;;;2.55;;
36441;SDS011;64346;50.820;16.274;2023-07-20T07:37:48;4.60;;;2.00;;
36441;SDS011;64346;50.820;16.274;2023-07-20T07:40:35;3.25;;;1.85;;
36441;SDS011;64346;50.820;16.274;2023-07-20T07:43:02;4.75;;;2.10;;
36441;SDS011;64346;50.820;16.274;2023-07-20T07:45:30;4.03;;;2.28;;
36441;SDS011;64346;50.820;16.274;2023-07-20T07:47:57;2.50;;;1.95;;
36441;SDS011;64346;50.820;16.274;2023-07-20T07:50:24;3.47;;;2.13;;
36441;SDS011;64346;50.820;16.274;2023-07-20T07:52:56;3.15;;;1.90;;
36441;SDS011;64346;50.820;16.274;2023-07-20T07:55:24;4.72;;;2.15;;
36441;SDS011;64346;50.820;16.274;2023-07-20T07:57:52;3.92;;;2.40;;
36441;SDS011;64346;50.820;16.274;2023-07-20T08:00:19;3.80;;;2.17;;
36441;SDS011;64346;50.820;16.274;2023-07-20T08:02:47;2.88;;;1.70;;
36441;SDS011;64346;50.820;16.274;2023-07-20T08:05:14;4.60;;;2.10;;
36441;SDS011;64346;50.820;16.274;2023-07-20T08:07:44;4.88;;;2.00;;
36441;SDS011;64346;50.820;16.274;2023-07-20T08:10:11;4.68;;;1.90;;
36441;SDS011;64346;50.820;16.274;2023-07-20T08:12:39;4.43;;;1.92;;
36441;SDS011;64346;50.820;16.274;2023-07-20T08:15:10;3.30;;;1.70;;
36441;SDS011;64346;50.820;16.274;2023-07-20T08:17:40;2.95;;;1.60;;
36441;SDS011;64346;50.820;16.274;2023-07-20T08:22:40;3.05;;;1.63;;
36441;SDS011;64346;50.820;16.274;2023-07-20T08:25:19;5.63;;;1.67;;
36441;SDS011;64346;50.820;16.274;2023-07-20T08:27:47;3.08;;;1.73;;
36441;SDS011;64346;50.820;16.274;2023-07-20T08:30:14;2.90;;;1.48;;
36441;SDS011;64346;50.820;16.274;2023-07-20T08:32:44;4.00;;;1.90;;
36441;SDS011;64346;50.820;16.274;2023-07-20T08:35:11;6.45;;;1.80;;
36441;SDS011;64346;50.820;16.274;2023-07-20T08:37:41;2.65;;;1.40;;
36441;SDS011;64346;50.820;16.274;2023-07-20T08:40:11;4.93;;;1.98;;
36441;SDS011;64346;50.820;16.274;2023-07-20T08:42:42;5.35;;;2.47;;
36441;SDS011;64346;50.820;16.274;2023-07-20T08:45:11;4.60;;;1.90;;
36441;SDS011;64346;50.820;16.274;2023-07-20T08:47:40;4.60;;;2.38;;
36441;SDS011;64346;50.820;16.274;2023-07-20T08:50:10;5.10;;;1.38;;
36441;SDS011;64346;50.820;16.274;2023-07-20T08:52:43;4.37;;;1.60;;
36441;SDS011;64346;50.820;16.274;2023-07-20T08:55:11;3.60;;;1.40;;
36441;SDS011;64346;50.820;16.274;2023-07-20T08:57:39;3.53;;;1.40;;
36441;SDS011;64346;50.820;16.274;2023-07-20T09:00:11;3.60;;;1.40;;
36441;SDS011;64346;50.820;16.274;2023-07-20T09:02:41;4.32;;;2.38;;
36441;SDS011;64346;50.820;16.274;2023-07-20T09:05:11;2.33;;;1.40;;
36441;SDS011;64346;50.820;16.274;2023-07-20T09:07:40;5.30;;;2.30;;
36441;SDS011;64346;50.820;16.274;2023-07-20T09:10:10;4.35;;;1.63;;
36441;SDS011;64346;50.820;16.274;2023-07-20T09:12:41;3.42;;;1.60;;
36441;SDS011;64346;50.820;16.274;2023-07-20T09:15:10;2.28;;;1.48;;
36441;SDS011;64346;50.820;16.274;2023-07-20T09:17:40;3.55;;;1.33;;
36441;SDS011;64346;50.820;16.274;2023-07-20T09:20:17;4.13;;;2.33;;
36441;SDS011;64346;50.820;16.274;2023-07-20T09:22:50;3.80;;;1.52;;
36441;SDS011;64346;50.820;16.274;2023-07-20T09:25:20;3.47;;;1.60;;
36441;SDS011;64346;50.820;16.274;2023-07-20T09:27:51;2.67;;;1.52;;
36441;SDS011;64346;50.820;16.274;2023-07-20T09:30:18;3.85;;;1.88;;
36441;SDS011;64346;50.820;16.274;2023-07-20T09:32:47;3.13;;;1.42;;
36441;SDS011;64346;50.820;16.274;2023-07-20T09:35:18;2.13;;;1.60;;
36441;SDS011;64346;50.820;16.274;2023-07-20T09:37:59;2.83;;;1.40;;
36441;SDS011;64346;50.820;16.274;2023-07-20T09:40:37;2.28;;;1.27;;
36441;SDS011;64346;50.820;16.274;2023-07-20T09:43:08;3.65;;;1.50;;
36441;SDS011;64346;50.820;16.274;2023-07-20T09:45:39;4.45;;;2.20;;
36441;SDS011;64346;50.820;16.274;2023-07-20T09:48:11;4.70;;;1.52;;
36441;SDS011;64346;50.820;16.274;2023-07-20T09:50:50;3.10;;;1.67;;
36441;SDS011;64346;50.820;16.274;2023-07-20T09:53:19;9.75;;;4.65;;
36441;SDS011;64346;50.820;16.274;2023-07-20T09:55:47;6.72;;;2.22;;
36441;SDS011;64346;50.820;16.274;2023-07-20T09:58:15;4.80;;;1.75;;
36441;SDS011;64346;50.820;16.274;2023-07-20T10:00:43;3.67;;;1.58;;
36441;SDS011;64346;50.820;16.274;2023-07-20T10:03:16;2.77;;;1.10;;
36441;SDS011;64346;50.820;16.274;2023-07-20T10:05:47;2.13;;;1.33;;
36441;SDS011;64346;50.820;16.274;2023-07-20T10:08:23;3.70;;;1.65;;
36441;SDS011;64346;50.820;16.274;2023-07-20T10:10:54;3.50;;;1.67;;
36441;SDS011;64346;50.820;16.274;2023-07-20T10:13:26;2.83;;;1.27;;
36441;SDS011;64346;50.820;16.274;2023-07-20T10:15:54;2.15;;;1.50;;
36441;SDS011;64346;50.820;16.274;2023-07-20T10:21:06;4.47;;;1.40;;
36441;SDS011;64346;50.820;16.274;2023-07-20T10:23:39;2.13;;;1.40;;
36441;SDS011;64346;50.820;16.274;2023-07-20T10:26:06;5.57;;;2.03;;
36441;SDS011;64346;50.820;16.274;2023-07-20T10:28:34;3.97;;;2.20;;
36441;SDS011;64346;50.820;16.274;2023-07-20T10:31:02;4.18;;;1.92;;
36441;SDS011;64346;50.820;16.274;2023-07-20T10:33:29;4.10;;;1.92;;
36441;SDS011;64346;50.820;16.274;2023-07-20T10:36:03;4.57;;;2.20;;
36441;SDS011;64346;50.820;16.274;2023-07-20T10:38:38;3.75;;;1.90;;
36441;SDS011;64346;50.820;16.274;2023-07-20T10:41:18;3.78;;;1.67;;
36441;SDS011;64346;50.820;16.274;2023-07-20T10:43:47;3.03;;;1.92;;
36441;SDS011;64346;50.820;16.274;2023-07-20T10:46:15;3.65;;;1.60;;
36441;SDS011;64346;50.820;16.274;2023-07-20T10:49:07;3.85;;;1.48;;
36441;SDS011;64346;50.820;16.274;2023-07-20T10:51:44;2.72;;;1.77;;
36441;SDS011;64346;50.820;16.274;2023-07-20T10:56:43;3.85;;;1.90;;
36441;SDS011;64346;50.820;16.274;2023-07-20T10:59:20;4.78;;;2.05;;
36441;SDS011;64346;50.820;16.274;2023-07-20T11:02:06;4.78;;;2.40;;
36441;SDS011;64346;50.820;16.274;2023-07-20T11:04:38;2.80;;;1.40;;
36441;SDS011;64346;50.820;16.274;2023-07-20T11:07:10;3.35;;;1.80;;
36441;SDS011;64346;50.820;16.274;2023-07-20T11:09:44;5.60;;;2.47;;
36441;SDS011;64346;50.820;16.274;2023-07-20T11:12:15;4.68;;;2.30;;
36441;SDS011;64346;50.820;16.274;2023-07-20T11:14:56;4.88;;;2.45;;
36441;SDS011;64346;50.820;16.274;2023-07-20T11:17:30;3.42;;;2.20;;
36441;SDS011;64346;50.820;16.274;2023-07-20T11:19:59;6.03;;;2.35;;
36441;SDS011;64346;50.820;16.274;2023-07-20T11:22:35;5.05;;;2.20;;
36441;SDS011;64346;50.820;16.274;2023-07-20T11:25:05;3.72;;;2.10;;
36441;SDS011;64346;50.820;16.274;2023-07-20T11:27:43;7.18;;;2.50;;
36441;SDS011;64346;50.820;16.274;2023-07-20T11:30:18;3.17;;;2.03;;
36441;SDS011;64346;50.820;16.274;2023-07-20T11:32:51;5.10;;;1.63;;
36441;SDS011;64346;50.820;16.274;2023-07-20T11:35:18;2.38;;;1.30;;
36441;SDS011;64346;50.820;16.274;2023-07-20T11:37:45;3.75;;;1.85;;
36441;SDS011;64346;50.820;16.274;2023-07-20T11:40:13;3.05;;;1.50;;
36441;SDS011;64346;50.820;16.274;2023-07-20T11:42:40;1.85;;;1.42;;
36441;SDS011;64346;50.820;16.274;2023-07-20T11:45:11;2.20;;;1.55;;
36441;SDS011;64346;50.820;16.274;2023-07-20T11:47:41;4.40;;;1.58;;
36441;SDS011;64346;50.820;16.274;2023-07-20T11:50:11;4.35;;;1.60;;
36441;SDS011;64346;50.820;16.274;2023-07-20T11:52:38;2.10;;;1.67;;
36441;SDS011;64346;50.820;16.274;2023-07-20T11:55:06;4.72;;;2.22;;
36441;SDS011;64346;50.820;16.274;2023-07-20T11:57:34;3.95;;;1.95;;
36441;SDS011;64346;50.820;16.274;2023-07-20T12:00:03;7.07;;;3.72;;
36441;SDS011;64346;50.820;16.274;2023-07-20T12:02:32;5.00;;;1.90;;
36441;SDS011;64346;50.820;16.274;2023-07-20T12:05:03;3.58;;;2.15;;
36441;SDS011;64346;50.820;16.274;2023-07-20T12:07:34;3.03;;;2.25;;
36441;SDS011;64346;50.820;16.274;2023-07-20T12:14:04;2.38;;;2.03;;
36441;SDS011;64346;50.820;16.274;2023-07-20T12:17:04;4.63;;;2.10;;
36441;SDS011;64346;50.820;16.274;2023-07-20T12:22:38;3.28;;;2.00;;
36441;SDS011;64346;50.820;16.274;2023-07-20T12:25:06;4.55;;;2.50;;
36441;SDS011;64346;50.820;16.274;2023-07-20T12:27:40;3.03;;;2.08;;
36441;SDS011;64346;50.820;16.274;2023-07-20T12:30:07;2.95;;;1.90;;
36441;SDS011;64346;50.820;16.274;2023-07-20T12:32:35;2.63;;;2.05;;
36441;SDS011;64346;50.820;16.274;2023-07-20T12:35:05;8.82;;;4.82;;
36441;SDS011;64346;50.820;16.274;2023-07-20T12:37:36;2.70;;;1.73;;
36441;SDS011;64346;50.820;16.274;2023-07-20T12:40:07;3.92;;;2.17;;
36441;SDS011;64346;50.820;16.274;2023-07-20T12:42:48;3.63;;;2.17;;
36441;SDS011;64346;50.820;16.274;2023-07-20T12:45:21;4.43;;;2.40;;
36441;SDS011;64346;50.820;16.274;2023-07-20T12:47:52;3.67;;;2.10;;
36441;SDS011;64346;50.820;16.274;2023-07-20T12:50:25;5.15;;;1.90;;
36441;SDS011;64346;50.820;16.274;2023-07-20T12:52:54;3.78;;;1.85;;
36441;SDS011;64346;50.820;16.274;2023-07-20T12:55:39;3.65;;;1.95;;
36441;SDS011;64346;50.820;16.274;2023-07-20T12:58:11;5.47;;;2.13;;
36441;SDS011;64346;50.820;16.274;2023-07-20T13:00:38;3.92;;;2.20;;
36441;SDS011;64346;50.820;16.274;2023-07-20T13:03:06;8.50;;;4.38;;
36441;SDS011;64346;50.820;16.274;2023-07-20T13:05:55;3.85;;;2.55;;
36441;SDS011;64346;50.820;16.274;2023-07-20T13:08:29;4.13;;;2.20;;
36441;SDS011;64346;50.820;16.274;2023-07-20T13:10:56;4.93;;;2.00;;
36441;SDS011;64346;50.820;16.274;2023-07-20T13:13:24;4.22;;;2.10;;
36441;SDS011;64346;50.820;16.274;2023-07-20T13:15:51;6.63;;;2.75;;
36441;SDS011;64346;50.820;16.274;2023-07-20T13:18:21;2.92;;;2.10;;
36441;SDS011;64346;50.820;16.274;2023-07-20T13:20:49;4.78;;;2.55;;
36441;SDS011;64346;50.820;16.274;2023-07-20T13:23:20;6.03;;;2.30;;
36441;SDS011;64346;50.820;16.274;2023-07-20T13:25:50;4.63;;;2.10;;
36441;SDS011;64346;50.820;16.274;2023-07-20T13:28:18;3.63;;;2.10;;
36441;SDS011;64346;50.820;16.274;2023-07-20T13:30:47;3.97;;;2.20;;
36441;SDS011;64346;50.820;16.274;2023-07-20T13:33:15;6.47;;;2.60;;
36441;SDS011;64346;50.820;16.274;2023-07-20T13:35:47;4.38;;;1.90;;
36441;SDS011;64346;50.820;16.274;2023-07-20T13:38:18;4.28;;;1.88;;
36441;SDS011;64346;50.820;16.274;2023-07-20T13:40:45;3.72;;;2.05;;
36441;SDS011;64346;50.820;16.274;2023-07-20T13:43:17;3.33;;;1.90;;
36441;SDS011;64346;50.820;16.274;2023-07-20T13:45:44;5.40;;;2.33;;
36441;SDS011;64346;50.820;16.274;2023-07-20T13:48:12;4.55;;;2.10;;
36441;SDS011;64346;50.820;16.274;2023-07-20T13:50:46;3.92;;;2.05;;
36441;SDS011;64346;50.820;16.274;2023-07-20T13:53:27;3.40;;;1.80;;
36441;SDS011;64346;50.820;16.274;2023-07-20T13:55:59;4.70;;;2.10;;
36441;SDS011;64346;50.820;16.274;2023-07-20T13:58:32;3.85;;;2.08;;
36441;SDS011;64346;50.820;16.274;2023-07-20T14:01:07;3.88;;;2.15;;
36441;SDS011;64346;50.820;16.274;2023-07-20T14:03:35;3.10;;;1.92;;
36441;SDS011;64346;50.820;16.274;2023-07-20T14:06:03;6.43;;;2.08;;
36441;SDS011;64346;50.820;16.274;2023-07-20T14:08:34;3.85;;;2.38;;
36441;SDS011;64346;50.820;16.274;2023-07-20T14:11:01;2.67;;;1.80;;
36441;SDS011;64346;50.820;16.274;2023-07-20T14:13:31;3.63;;;1.98;;
36441;SDS011;64346;50.820;16.274;2023-07-20T14:16:20;2.42;;;1.80;;
36441;SDS011;64346;50.820;16.274;2023-07-20T14:18:48;2.30;;;1.73;;
36441;SDS011;64346;50.820;16.274;2023-07-20T14:21:16;2.58;;;1.50;;
36441;SDS011;64346;50.820;16.274;2023-07-20T14:23:51;2.58;;;1.50;;
36441;SDS011;64346;50.820;16.274;2023-07-20T14:26:19;2.30;;;1.35;;
36441;SDS011;64346;50.820;16.274;2023-07-20T14:28:51;4.90;;;1.73;;
36441;SDS011;64346;50.820;16.274;2023-07-20T14:31:20;2.85;;;1.33;;
36441;SDS011;64346;50.820;16.274;2023-07-20T14:33:48;2.47;;;1.30;;
36441;SDS011;64346;50.820;16.274;2023-07-20T14:36:15;1.00;;;0.90;;
36441;SDS011;64346;50.820;16.274;2023-07-20T14:38:44;1.58;;;1.15;;
36441;SDS011;64346;50.820;16.274;2023-07-20T14:41:15;2.35;;;1.48;;
36441;SDS011;64346;50.820;16.274;2023-07-20T14:43:45;14.07;;;8.20;;
36441;SDS011;64346;50.820;16.274;2023-07-20T14:46:12;4.25;;;1.90;;
36441;SDS011;64346;50.820;16.274;2023-07-20T14:48:40;1.83;;;1.55;;
36441;SDS011;64346;50.820;16.274;2023-07-20T14:51:22;5.65;;;2.10;;
36441;SDS011;64346;50.820;16.274;2023-07-20T14:53:50;4.07;;;2.13;;
36441;SDS011;64346;50.820;16.274;2023-07-20T14:56:22;2.65;;;1.70;;
36441;SDS011;64346;50.820;16.274;2023-07-20T15:01:19;3.08;;;1.80;;
36441;SDS011;64346;50.820;16.274;2023-07-20T15:03:47;2.78;;;1.60;;
36441;SDS011;64346;50.820;16.274;2023-07-20T15:06:14;2.05;;;1.30;;
36441;SDS011;64346;50.820;16.274;2023-07-20T15:08:41;2.15;;;1.30;;
36441;SDS011;64346;50.820;16.274;2023-07-20T15:11:09;3.47;;;1.50;;
36441;SDS011;64346;50.820;16.274;2023-07-20T15:13:39;2.60;;;1.52;;
36441;SDS011;64346;50.820;16.274;2023-07-20T15:16:09;2.88;;;1.75;;
36441;SDS011;64346;50.820;16.274;2023-07-20T15:18:39;1.52;;;1.30;;
36441;SDS011;64346;50.820;16.274;2023-07-20T15:21:14;2.08;;;1.60;;
36441;SDS011;64346;50.820;16.274;2023-07-20T15:23:42;2.40;;;1.20;;